sensor_id;sensor_type;location;lat;lon;timestamp;pressure;altitude;pressure_sealevel;temperature;humidity
3206;BME280;1615;53.602;11.418;2023-03-23T00:01:17;99939.06;;;13.36;100.00
3206;BME280;1615;53.602;11.418;2023-03-23T00:03:49;99800.06;;;12.64;100.00
3206;BME280;1615;53.602;11.418;2023-03-23T00:06:16;99946.34;;;13.41;100.00
3206;BME280;1615;53.602;11.418;2023-03-23T00:08:46;99924.31;;;13.41;100.00
3206;BME280;1615;53.602;11.418;2023-03-23T00:11:13;99919.31;;;13.34;100.00
3206;BME280;1615;53.602;11.418;2023-03-23T00:13:41;99914.34;;;13.28;100.00
3206;BME280;1615;53.602;11.418;2023-03-23T00:16:09;99912.94;;;13.13;100.00
3206;BME280;1615;53.602;11.418;2023-03-23T00:18:48;99923.28;;;13.16;100.00
3206;BME280;1615;53.602;11.418;2023-03-23T00:21:21;99928.16;;;13.11;100.00
3206;BME280;1615;53.602;11.418;2023-03-23T00:23:53;99916.56;;;13.05;100.00
3206;BME280;1615;53.602;11.418;2023-03-23T00:26:18;99924.16;;;13.00;100.00
3206;BME280;1615;53.602;11.418;2023-03-23T00:28:44;99904.63;;;12.84;100.00
3206;BME280;1615;53.602;11.418;2023-03-23T00:31:12;99923.56;;;12.86;100.00
3206;BME280;1615;53.602;11.418;2023-03-23T00:33:38;99904.66;;;12.76;100.00
3206;BME280;1615;53.602;11.418;2023-03-23T00:36:09;99929.69;;;12.83;100.00
3206;BME280;1615;53.602;11.418;2023-03-23T00:38:36;99867.06;;;12.42;100.00
3206;BME280;1615;53.602;11.418;2023-03-23T00:41:02;99951.69;;;12.83;100.00
3206;BME280;1615;53.602;11.418;2023-03-23T00:43:29;99936.97;;;12.79;100.00
3206;BME280;1615;53.602;11.418;2023-03-23T00:45:57;99822.03;;;12.09;100.00
3206;BME280;1615;53.602;11.418;2023-03-23T00:48:26;99934.09;;;12.75;100.00
3206;BME280;1615;53.602;11.418;2023-03-23T00:50:52;99932.63;;;12.78;100.00
3206;BME280;1615;53.602;11.418;2023-03-23T00:53:18;99935.88;;;12.80;100.00
3206;BME280;1615;53.602;11.418;2023-03-23T00:55:45;99939.91;;;12.74;100.00
3206;BME280;1615;53.602;11.418;2023-03-23T00:58:11;99904.06;;;12.53;100.00
3206;BME280;1615;53.602;11.418;2023-03-23T01:00:37;99929.75;;;12.66;100.00
3206;BME280;1615;53.602;11.418;2023-03-23T01:03:03;99847.38;;;12.15;100.00
3206;BME280;1615;53.602;11.418;2023-03-23T01:05:33;99933.78;;;12.68;100.00
3206;BME280;1615;53.602;11.418;2023-03-23T01:07:58;99872.72;;;12.37;100.00
3206;BME280;1615;53.602;11.418;2023-03-23T01:10:24;99932.34;;;12.62;100.00
3206;BME280;1615;53.602;11.418;2023-03-23T01:12:52;99931.22;;;12.63;100.00
3206;BME280;1615;53.602;11.418;2023-03-23T01:15:18;99924.28;;;12.57;100.00
3206;BME280;1615;53.602;11.418;2023-03-23T01:17:45;99922.03;;;12.42;100.00
3206;BME280;1615;53.602;11.418;2023-03-23T01:20:13;99859.69;;;12.09;100.00
3206;BME280;1615;53.602;11.418;2023-03-23T01:22:40;99924.31;;;12.40;100.00
3206;BME280;1615;53.602;11.418;2023-03-23T01:25:05;99893.59;;;12.30;100.00
3206;BME280;1615;53.602;11.418;2023-03-23T01:27:31;99909.09;;;12.43;100.00
3206;BME280;1615;53.602;11.418;2023-03-23T01:29:56;99898.75;;;12.40;100.00
3206;BME280;1615;53.602;11.418;2023-03-23T01:32:22;99900.03;;;12.42;100.00
3206;BME280;1615;53.602;11.418;2023-03-23T01:34:47;99894.88;;;12.41;100.00
3206;BME280;1615;53.602;11.418;2023-03-23T01:37:12;99890.34;;;12.45;100.00
3206;BME280;1615;53.602;11.418;2023-03-23T01:39:38;99922.50;;;12.44;100.00
3206;BME280;1615;53.602;11.418;2023-03-23T01:42:03;99884.53;;;12.38;100.00
3206;BME280;1615;53.602;11.418;2023-03-23T01:46:54;99877.25;;;12.33;100.00
3206;BME280;1615;53.602;11.418;2023-03-23T01:49:27;99891.69;;;12.22;100.00
3206;BME280;1615;53.602;11.418;2023-03-23T01:51:58;99890.38;;;12.28;100.00
3206;BME280;1615;53.602;11.418;2023-03-23T01:54:25;99881.44;;;12.39;100.00
3206;BME280;1615;53.602;11.418;2023-03-23T01:56:54;99883.41;;;12.39;100.00
3206;BME280;1615;53.602;11.418;2023-03-23T01:59:23;99802.69;;;11.97;100.00
3206;BME280;1615;53.602;11.418;2023-03-23T02:01:51;99891.00;;;12.25;100.00
3206;BME280;1615;53.602;11.418;2023-03-23T02:04:18;99882.09;;;12.45;100.00
3206;BME280;1615;53.602;11.418;2023-03-23T02:06:44;99878.53;;;12.44;100.00
3206;BME280;1615;53.602;11.418;2023-03-23T02:09:11;99867.06;;;12.42;100.00
3206;BME280;1615;53.602;11.418;2023-03-23T02:11:39;99872.56;;;12.42;100.00
3206;BME280;1615;53.602;11.418;2023-03-23T02:14:05;99868.34;;;12.45;100.00
3206;BME280;1615;53.602;11.418;2023-03-23T02:16:44;99876.13;;;12.43;100.00
3206;BME280;1615;53.602;11.418;2023-03-23T02:19:43;99872.88;;;12.41;100.00
3206;BME280;1615;53.602;11.418;2023-03-23T02:22:43;99869.00;;;12.42;100.00
3206;BME280;1615;53.602;11.418;2023-03-23T02:28:31;99860.28;;;12.40;100.00
3206;BME280;1615;53.602;11.418;2023-03-23T02:31:42;99852.34;;;12.38;100.00
3206;BME280;1615;53.602;11.418;2023-03-23T02:34:14;99856.56;;;12.36;100.00
3206;BME280;1615;53.602;11.418;2023-03-23T02:36:49;99833.63;;;12.23;100.00
3206;BME280;1615;53.602;11.418;2023-03-23T02:42:07;99840.25;;;12.31;100.00
3206;BME280;1615;53.602;11.418;2023-03-23T02:44:35;99843.47;;;12.33;100.00
3206;BME280;1615;53.602;11.418;2023-03-23T02:47:04;99828.91;;;12.32;100.00
3206;BME280;1615;53.602;11.418;2023-03-23T02:49:32;99786.34;;;12.01;100.00
3206;BME280;1615;53.602;11.418;2023-03-23T02:52:04;99861.59;;;12.34;100.00
3206;BME280;1615;53.602;11.418;2023-03-23T02:54:30;99833.13;;;12.30;100.00
3206;BME280;1615;53.602;11.418;2023-03-23T02:56:57;99838.94;;;12.37;100.00
3206;BME280;1615;53.602;11.418;2023-03-23T02:59:23;99832.78;;;12.40;100.00
3206;BME280;1615;53.602;11.418;2023-03-23T03:02:01;99715.78;;;11.84;100.00
3206;BME280;1615;53.602;11.418;2023-03-23T03:04:31;99810.16;;;12.43;100.00
3206;BME280;1615;53.602;11.418;2023-03-23T03:10:18;99740.59;;;12.13;100.00
3206;BME280;1615;53.602;11.418;2023-03-23T03:15:27;99806.56;;;12.51;100.00
3206;BME280;1615;53.602;11.418;2023-03-23T03:18:18;99804.63;;;12.51;100.00
3206;BME280;1615;53.602;11.418;2023-03-23T03:20:49;99809.78;;;12.53;100.00
3206;BME280;1615;53.602;11.418;2023-03-23T03:23:19;99778.09;;;12.47;100.00
3206;BME280;1615;53.602;11.418;2023-03-23T03:25:46;99782.00;;;12.46;100.00
3206;BME280;1615;53.602;11.418;2023-03-23T03:28:17;99805.72;;;12.59;100.00
3206;BME280;1615;53.602;11.418;2023-03-23T03:30:49;99805.22;;;12.57;100.00
3206;BME280;1615;53.602;11.418;2023-03-23T03:33:16;99798.13;;;12.56;100.00
3206;BME280;1615;53.602;11.418;2023-03-23T03:35:43;99746.53;;;12.15;100.00
3206;BME280;1615;53.602;11.418;2023-03-23T03:38:10;99742.22;;;12.06;100.00
3206;BME280;1615;53.602;11.418;2023-03-23T03:40:35;99665.72;;;11.70;100.00
3206;BME280;1615;53.602;11.418;2023-03-23T03:43:02;99799.16;;;12.43;100.00
3206;BME280;1615;53.602;11.418;2023-03-23T03:45:27;99807.22;;;12.48;100.00
3206;BME280;1615;53.602;11.418;2023-03-23T03:47:53;99787.78;;;12.53;100.00
3206;BME280;1615;53.602;11.418;2023-03-23T03:50:18;99772.09;;;12.53;100.00
3206;BME280;1615;53.602;11.418;2023-03-23T03:52:43;99772.91;;;12.54;100.00
3206;BME280;1615;53.602;11.418;2023-03-23T03:55:10;99772.91;;;12.54;100.00
3206;BME280;1615;53.602;11.418;2023-03-23T03:57:36;99772.56;;;12.55;100.00
3206;BME280;1615;53.602;11.418;2023-03-23T04:00:03;99771.28;;;12.53;100.00
3206;BME280;1615;53.602;11.418;2023-03-23T04:02:44;99750.94;;;12.54;100.00
3206;BME280;1615;53.602;11.418;2023-03-23T04:05:13;99756.25;;;12.50;100.00
3206;BME280;1615;53.602;11.418;2023-03-23T04:07:38;99773.09;;;12.49;100.00
3206;BME280;1615;53.602;11.418;2023-03-23T04:10:05;99763.25;;;12.48;100.00
3206;BME280;1615;53.602;11.418;2023-03-23T04:12:32;99752.25;;;12.48;100.00
3206;BME280;1615;53.602;11.418;2023-03-23T04:14:57;99755.47;;;12.50;100.00
3206;BME280;1615;53.602;11.418;2023-03-23T04:17:23;99754.66;;;12.49;100.00
3206;BME280;1615;53.602;11.418;2023-03-23T04:19:51;99756.88;;;12.56;100.00
3206;BME280;1615;53.602;11.418;2023-03-23T04:22:16;99750.09;;;12.53;100.00
3206;BME280;1615;53.602;11.418;2023-03-23T04:24:42;99723.13;;;12.47;100.00
3206;BME280;1615;53.602;11.418;2023-03-23T04:27:07;99758.31;;;12.62;100.00
3206;BME280;1615;53.602;11.418;2023-03-23T04:29:33;99741.81;;;12.62;100.00
3206;BME280;1615;53.602;11.418;2023-03-23T04:31:58;99736.81;;;12.64;100.00
3206;BME280;1615;53.602;11.418;2023-03-23T04:34:26;99750.56;;;12.64;100.00
3206;BME280;1615;53.602;11.418;2023-03-23T04:36:51;99735.16;;;12.63;100.00
3206;BME280;1615;53.602;11.418;2023-03-23T04:39:17;99723.72;;;12.61;100.00
3206;BME280;1615;53.602;11.418;2023-03-23T04:41:43;99718.78;;;12.46;100.00
3206;BME280;1615;53.602;11.418;2023-03-23T04:44:09;99727.59;;;12.60;100.00
3206;BME280;1615;53.602;11.418;2023-03-23T04:46:34;99655.06;;;12.15;100.00
3206;BME280;1615;53.602;11.418;2023-03-23T04:49:00;99732.59;;;12.58;100.00
3206;BME280;1615;53.602;11.418;2023-03-23T04:51:26;99735.34;;;12.58;100.00
3206;BME280;1615;53.602;11.418;2023-03-23T04:53:53;99631.28;;;11.90;100.00
3206;BME280;1615;53.602;11.418;2023-03-23T04:56:19;99730.81;;;12.62;100.00
3206;BME280;1615;53.602;11.418;2023-03-23T04:58:45;99730.50;;;12.63;100.00
3206;BME280;1615;53.602;11.418;2023-03-23T05:01:11;99705.66;;;12.51;100.00
3206;BME280;1615;53.602;11.418;2023-03-23T05:03:39;99724.53;;;12.61;100.00
3206;BME280;1615;53.602;11.418;2023-03-23T05:06:05;99726.13;;;12.62;100.00
3206;BME280;1615;53.602;11.418;2023-03-23T05:08:31;99726.59;;;12.64;100.00
3206;BME280;1615;53.602;11.418;2023-03-23T05:10:58;99724.66;;;12.65;100.00
3206;BME280;1615;53.602;11.418;2023-03-23T05:13:24;99744.38;;;12.67;100.00
3206;BME280;1615;53.602;11.418;2023-03-23T05:15:49;99746.47;;;12.70;100.00
3206;BME280;1615;53.602;11.418;2023-03-23T05:18:15;99707.44;;;12.47;100.00
3206;BME280;1615;53.602;11.418;2023-03-23T05:20:41;99746.47;;;12.70;100.00
3206;BME280;1615;53.602;11.418;2023-03-23T05:23:08;99632.53;;;12.01;100.00
3206;BME280;1615;53.602;11.418;2023-03-23T05:25:33;99710.81;;;12.53;100.00
3206;BME280;1615;53.602;11.418;2023-03-23T05:28:02;99743.38;;;12.71;100.00
3206;BME280;1615;53.602;11.418;2023-03-23T05:30:27;99743.88;;;12.73;100.00
3206;BME280;1615;53.602;11.418;2023-03-23T05:32:53;99730.91;;;12.74;100.00
3206;BME280;1615;53.602;11.418;2023-03-23T05:35:18;99735.59;;;12.73;100.00
3206;BME280;1615;53.602;11.418;2023-03-23T05:37:44;99718.34;;;12.64;100.00
3206;BME280;1615;53.602;11.418;2023-03-23T05:40:10;99742.38;;;12.76;100.00
3206;BME280;1615;53.602;11.418;2023-03-23T05:42:37;99643.44;;;12.18;100.00
3206;BME280;1615;53.602;11.418;2023-03-23T05:45:05;99727.97;;;12.79;100.00
3206;BME280;1615;53.602;11.418;2023-03-23T05:47:31;99737.84;;;12.80;100.00
3206;BME280;1615;53.602;11.418;2023-03-23T05:49:57;99741.72;;;12.79;100.00
3206;BME280;1615;53.602;11.418;2023-03-23T05:52:22;99740.38;;;12.85;100.00
3206;BME280;1615;53.602;11.418;2023-03-23T05:54:49;99624.25;;;12.09;100.00
3206;BME280;1615;53.602;11.418;2023-03-23T05:57:15;99737.97;;;12.83;100.00
3206;BME280;1615;53.602;11.418;2023-03-23T05:59:40;99744.28;;;12.84;100.00
3206;BME280;1615;53.602;11.418;2023-03-23T06:02:05;99744.56;;;12.91;100.00
3206;BME280;1615;53.602;11.418;2023-03-23T06:04:31;99732.41;;;12.92;100.00
3206;BME280;1615;53.602;11.418;2023-03-23T06:07:00;99743.44;;;12.92;100.00
3206;BME280;1615;53.602;11.418;2023-03-23T06:09:26;99743.56;;;12.95;100.00
3206;BME280;1615;53.602;11.418;2023-03-23T06:11:51;99738.38;;;12.94;100.00
3206;BME280;1615;53.602;11.418;2023-03-23T06:14:17;99700.47;;;12.79;100.00
3206;BME280;1615;53.602;11.418;2023-03-23T06:16:42;99727.06;;;12.95;100.00
3206;BME280;1615;53.602;11.418;2023-03-23T06:19:08;99724.63;;;12.94;100.00
3206;BME280;1615;53.602;11.418;2023-03-23T06:21:33;99723.19;;;12.96;100.00
3206;BME280;1615;53.602;11.418;2023-03-23T06:23:59;99727.69;;;13.01;100.00
3206;BME280;1615;53.602;11.418;2023-03-23T06:26:32;99586.88;;;12.17;100.00
3206;BME280;1615;53.602;11.418;2023-03-23T06:28:58;99733.66;;;13.03;100.00
3206;BME280;1615;53.602;11.418;2023-03-23T06:31:26;99753.38;;;13.05;100.00
3206;BME280;1615;53.602;11.418;2023-03-23T06:33:52;99621.16;;;12.40;100.00
3206;BME280;1615;53.602;11.418;2023-03-23T06:36:18;99729.56;;;13.09;100.00
3206;BME280;1615;53.602;11.418;2023-03-23T06:38:44;99730.72;;;13.08;100.00
3206;BME280;1615;53.602;11.418;2023-03-23T06:41:09;99723.41;;;13.12;100.00
3206;BME280;1615;53.602;11.418;2023-03-23T06:43:35;99711.72;;;13.15;100.00
3206;BME280;1615;53.602;11.418;2023-03-23T06:46:03;99724.13;;;13.21;100.00
3206;BME280;1615;53.602;11.418;2023-03-23T06:48:29;99729.84;;;13.16;100.00
3206;BME280;1615;53.602;11.418;2023-03-23T06:50:54;99727.09;;;13.16;100.00
3206;BME280;1615;53.602;11.418;2023-03-23T06:53:20;99729.06;;;13.15;100.00
3206;BME280;1615;53.602;11.418;2023-03-23T06:55:45;99719.66;;;13.16;100.00
3206;BME280;1615;53.602;11.418;2023-03-23T06:58:11;99719.78;;;13.20;100.00
3206;BME280;1615;53.602;11.418;2023-03-23T07:00:37;99719.78;;;13.20;100.00
3206;BME280;1615;53.602;11.418;2023-03-23T07:03:03;99700.59;;;13.11;100.00
3206;BME280;1615;53.602;11.418;2023-03-23T07:05:29;99661.34;;;12.94;100.00
3206;BME280;1615;53.602;11.418;2023-03-23T07:07:55;99720.56;;;13.41;100.00
3206;BME280;1615;53.602;11.418;2023-03-23T07:10:21;99719.09;;;13.43;100.00
3206;BME280;1615;53.602;11.418;2023-03-23T07:12:47;99728.63;;;13.46;100.00
3206;BME280;1615;53.602;11.418;2023-03-23T07:15:12;99726.16;;;13.65;100.00
3206;BME280;1615;53.602;11.418;2023-03-23T07:17:40;99720.41;;;13.58;100.00
3206;BME280;1615;53.602;11.418;2023-03-23T07:20:06;99735.84;;;13.71;100.00
3206;BME280;1615;53.602;11.418;2023-03-23T07:22:32;99733.66;;;13.64;100.00
3206;BME280;1615;53.602;11.418;2023-03-23T07:24:57;99725.38;;;13.64;100.00
3206;BME280;1615;53.602;11.418;2023-03-23T07:27:23;99726.31;;;13.68;100.00
3206;BME280;1615;53.602;11.418;2023-03-23T07:29:51;99724.84;;;13.71;100.00
3206;BME280;1615;53.602;11.418;2023-03-23T07:32:16;99619.06;;;13.07;100.00
3206;BME280;1615;53.602;11.418;2023-03-23T07:34:42;99726.13;;;13.73;100.00
3206;BME280;1615;53.602;11.418;2023-03-23T07:37:07;99724.38;;;13.81;100.00
3206;BME280;1615;53.602;11.418;2023-03-23T07:39:33;99689.38;;;13.69;100.00
3206;BME280;1615;53.602;11.418;2023-03-23T07:41:58;99725.50;;;14.00;100.00
3206;BME280;1615;53.602;11.418;2023-03-23T07:44:24;99730.66;;;14.02;100.00
3206;BME280;1615;53.602;11.418;2023-03-23T07:46:49;99740.56;;;14.03;100.00
3206;BME280;1615;53.602;11.418;2023-03-23T07:49:16;99702.50;;;13.84;100.00
3206;BME280;1615;53.602;11.418;2023-03-23T07:51:42;99732.06;;;14.08;100.00
3206;BME280;1615;53.602;11.418;2023-03-23T07:54:07;99738.03;;;14.10;100.00
3206;BME280;1615;53.602;11.418;2023-03-23T07:56:34;99757.00;;;14.11;100.00
3206;BME280;1615;53.602;11.418;2023-03-23T07:59:00;99677.91;;;13.79;100.00
3206;BME280;1615;53.602;11.418;2023-03-23T08:01:26;99721.50;;;14.10;100.00
3206;BME280;1615;53.602;11.418;2023-03-23T08:03:51;99736.13;;;14.22;100.00
3206;BME280;1615;53.602;11.418;2023-03-23T08:06:19;99752.91;;;14.29;100.00
3206;BME280;1615;53.602;11.418;2023-03-23T08:08:46;99748.88;;;14.27;100.00
3206;BME280;1615;53.602;11.418;2023-03-23T08:11:11;99742.69;;;14.30;100.00
3206;BME280;1615;53.602;11.418;2023-03-23T08:13:38;99733.72;;;14.33;100.00
3206;BME280;1615;53.602;11.418;2023-03-23T08:16:10;99750.66;;;14.11;100.00
3206;BME280;1615;53.602;11.418;2023-03-23T08:18:37;99746.75;;;14.12;100.00
3206;BME280;1615;53.602;11.418;2023-03-23T08:21:03;99737.09;;;14.06;100.00
3206;BME280;1615;53.602;11.418;2023-03-23T08:23:35;99746.47;;;14.25;100.00
3206;BME280;1615;53.602;11.418;2023-03-23T08:26:02;99747.41;;;14.41;100.00
3206;BME280;1615;53.602;11.418;2023-03-23T08:28:28;99744.91;;;14.48;100.00
3206;BME280;1615;53.602;11.418;2023-03-23T08:30:53;99742.25;;;14.52;100.00
3206;BME280;1615;53.602;11.418;2023-03-23T08:33:19;99747.78;;;14.64;100.00
3206;BME280;1615;53.602;11.418;2023-03-23T08:35:54;99740.75;;;14.78;100.00
3206;BME280;1615;53.602;11.418;2023-03-23T08:38:20;99744.78;;;14.81;100.00
3206;BME280;1615;53.602;11.418;2023-03-23T08:40:46;99709.03;;;14.72;100.00
3206;BME280;1615;53.602;11.418;2023-03-23T08:43:12;99736.03;;;14.91;100.00
3206;BME280;1615;53.602;11.418;2023-03-23T08:45:37;99736.94;;;14.95;100.00
3206;BME280;1615;53.602;11.418;2023-03-23T08:48:03;99744.53;;;14.86;100.00
3206;BME280;1615;53.602;11.418;2023-03-23T08:50:29;99754.53;;;14.78;100.00
3206;BME280;1615;53.602;11.418;2023-03-23T08:52:55;99744.56;;;14.62;100.00
3206;BME280;1615;53.602;11.418;2023-03-23T08:55:21;99735.59;;;14.53;100.00
3206;BME280;1615;53.602;11.418;2023-03-23T08:57:47;99733.88;;;14.48;100.00
3206;BME280;1615;53.602;11.418;2023-03-23T09:00:18;99736.97;;;14.59;100.00
3206;BME280;1615;53.602;11.418;2023-03-23T09:02:48;99742.03;;;14.57;100.00
3206;BME280;1615;53.602;11.418;2023-03-23T09:05:19;99735.25;;;14.66;100.00
3206;BME280;1615;53.602;11.418;2023-03-23T09:07:47;99741.34;;;14.84;100.00
3206;BME280;1615;53.602;11.418;2023-03-23T09:10:14;99736.00;;;15.03;100.00
3206;BME280;1615;53.602;11.418;2023-03-23T09:12:40;99609.41;;;14.38;100.00
3206;BME280;1615;53.602;11.418;2023-03-23T09:15:08;99739.31;;;15.20;100.00
3206;BME280;1615;53.602;11.418;2023-03-23T09:17:43;99731.38;;;15.19;100.00
3206;BME280;1615;53.602;11.418;2023-03-23T09:20:11;99725.06;;;15.18;100.00
3206;BME280;1615;53.602;11.418;2023-03-23T09:22:42;99751.38;;;15.28;100.00
3206;BME280;1615;53.602;11.418;2023-03-23T09:25:10;99728.81;;;15.38;100.00
3206;BME280;1615;53.602;11.418;2023-03-23T09:27:36;99729.25;;;15.52;100.00
3206;BME280;1615;53.602;11.418;2023-03-23T09:30:06;99746.22;;;15.66;100.00
3206;BME280;1615;53.602;11.418;2023-03-23T09:32:33;99322.69;;;13.31;100.00
3206;BME280;1615;53.602;11.418;2023-03-23T09:35:00;99722.50;;;15.92;100.00
3206;BME280;1615;53.602;11.418;2023-03-23T09:37:26;99717.56;;;15.86;100.00
3206;BME280;1615;53.602;11.418;2023-03-23T09:39:52;99720.34;;;15.86;100.00
3206;BME280;1615;53.602;11.418;2023-03-23T09:42:29;99730.66;;;15.89;100.00
3206;BME280;1615;53.602;11.418;2023-03-23T09:45:31;99729.13;;;15.76;100.00
3206;BME280;1615;53.602;11.418;2023-03-23T09:50:41;99607.41;;;14.74;100.00
3206;BME280;1615;53.602;11.418;2023-03-23T09:55:37;99736.38;;;15.53;100.00
3206;BME280;1615;53.602;11.418;2023-03-23T09:58:14;99741.44;;;15.51;100.00
3206;BME280;1615;53.602;11.418;2023-03-23T10:03:43;99758.78;;;15.91;100.00
3206;BME280;1615;53.602;11.418;2023-03-23T10:06:11;99758.84;;;16.22;100.00
3206;BME280;1615;53.602;11.418;2023-03-23T10:08:43;99765.19;;;16.38;100.00
3206;BME280;1615;53.602;11.418;2023-03-23T10:11:25;99771.47;;;16.50;100.00
3206;BME280;1615;53.602;11.418;2023-03-23T10:17:00;99765.84;;;16.47;100.00
3206;BME280;1615;53.602;11.418;2023-03-23T10:22:12;99754.91;;;16.23;100.00
3206;BME280;1615;53.602;11.418;2023-03-23T10:27:38;99714.72;;;15.98;100.00
3206;BME280;1615;53.602;11.418;2023-03-23T10:30:42;99804.34;;;16.24;100.00
3206;BME280;1615;53.602;11.418;2023-03-23T10:33:33;99809.13;;;16.12;100.00
3206;BME280;1615;53.602;11.418;2023-03-23T10:38:48;99742.09;;;15.60;100.00
3206;BME280;1615;53.602;11.418;2023-03-23T10:41:17;99813.50;;;15.85;100.00
3206;BME280;1615;53.602;11.418;2023-03-23T10:43:45;99689.75;;;15.12;100.00
3206;BME280;1615;53.602;11.418;2023-03-23T10:48:43;99809.13;;;15.84;100.00
3206;BME280;1615;53.602;11.418;2023-03-23T10:51:11;99813.59;;;15.89;100.00
3206;BME280;1615;53.602;11.418;2023-03-23T10:53:49;99699.06;;;15.19;100.00
3206;BME280;1615;53.602;11.418;2023-03-23T10:56:34;99798.47;;;15.98;100.00
3206;BME280;1615;53.602;11.418;2023-03-23T10:59:20;99807.31;;;16.04;100.00
3206;BME280;1615;53.602;11.418;2023-03-23T11:01:50;99789.31;;;16.10;100.00
3206;BME280;1615;53.602;11.418;2023-03-23T11:04:17;99807.72;;;16.18;100.00
3206;BME280;1615;53.602;11.418;2023-03-23T11:06:46;99813.19;;;16.30;100.00
3206;BME280;1615;53.602;11.418;2023-03-23T11:09:21;99829.84;;;16.18;100.00
3206;BME280;1615;53.602;11.418;2023-03-23T11:11:57;99818.28;;;16.28;100.00
3206;BME280;1615;53.602;11.418;2023-03-23T11:14:28;99819.28;;;16.35;100.00
3206;BME280;1615;53.602;11.418;2023-03-23T11:16:58;99834.88;;;16.28;100.00
3206;BME280;1615;53.602;11.418;2023-03-23T11:19:36;99831.44;;;16.19;100.00
3206;BME280;1615;53.602;11.418;2023-03-23T11:22:17;99831.34;;;16.15;100.00
3206;BME280;1615;53.602;11.418;2023-03-23T11:24:47;99827.41;;;16.16;100.00
3206;BME280;1615;53.602;11.418;2023-03-23T11:27:13;99825.47;;;16.17;100.00
3206;BME280;1615;53.602;11.418;2023-03-23T11:30:19;99829.34;;;16.28;100.00
3206;BME280;1615;53.602;11.418;2023-03-23T11:32:47;99836.97;;;16.19;100.00
3206;BME280;1615;53.602;11.418;2023-03-23T11:35:27;99726.63;;;15.71;100.00
3206;BME280;1615;53.602;11.418;2023-03-23T11:37:54;99778.97;;;16.07;100.00
3206;BME280;1615;53.602;11.418;2023-03-23T11:40:27;99853.59;;;16.46;100.00
3206;BME280;1615;53.602;11.418;2023-03-23T11:45:19;99850.66;;;16.55;100.00
3206;BME280;1615;53.602;11.418;2023-03-23T11:50:18;99852.50;;;16.51;100.00
3206;BME280;1615;53.602;11.418;2023-03-23T11:53:00;99854.38;;;16.47;100.00
3206;BME280;1615;53.602;11.418;2023-03-23T11:55:35;99851.00;;;16.53;100.00
3206;BME280;1615;53.602;11.418;2023-03-23T11:58:10;99845.72;;;16.48;100.00
3206;BME280;1615;53.602;11.418;2023-03-23T12:00:41;99858.78;;;16.36;100.00
3206;BME280;1615;53.602;11.418;2023-03-23T12:03:40;99845.72;;;16.21;100.00
3206;BME280;1615;53.602;11.418;2023-03-23T12:06:14;99859.59;;;16.09;100.00
3206;BME280;1615;53.602;11.418;2023-03-23T12:14:03;99855.91;;;16.17;100.00
3206;BME280;1615;53.602;11.418;2023-03-23T12:27:29;99786.06;;;15.65;100.00
3206;BME280;1615;53.602;11.418;2023-03-23T12:32:58;99881.34;;;16.50;100.00
3206;BME280;1615;53.602;11.418;2023-03-23T12:35:38;99873.63;;;16.71;100.00
3206;BME280;1615;53.602;11.418;2023-03-23T12:51:38;99886.69;;;16.43;100.00
3206;BME280;1615;53.602;11.418;2023-03-23T12:54:33;99891.41;;;16.42;100.00
3206;BME280;1615;53.602;11.418;2023-03-23T12:57:12;99888.66;;;16.42;100.00
3206;BME280;1615;53.602;11.418;2023-03-23T13:02:41;99887.13;;;16.45;100.00
3206;BME280;1615;53.602;11.418;2023-03-23T13:10:49;99891.78;;;16.29;100.00
3206;BME280;1615;53.602;11.418;2023-03-23T13:13:21;99895.47;;;16.33;100.00
3206;BME280;1615;53.602;11.418;2023-03-23T13:19:05;99894.84;;;16.12;100.00
3206;BME280;1615;53.602;11.418;2023-03-23T13:24:05;99884.97;;;15.99;100.00
3206;BME280;1615;53.602;11.418;2023-03-23T13:26:40;99890.00;;;16.09;100.00
3206;BME280;1615;53.602;11.418;2023-03-23T13:29:13;99884.72;;;16.04;100.00
3206;BME280;1615;53.602;11.418;2023-03-23T13:31:40;99878.03;;;16.17;100.00
3206;BME280;1615;53.602;11.418;2023-03-23T13:34:31;99874.28;;;16.25;100.00
3206;BME280;1615;53.602;11.418;2023-03-23T13:37:00;99872.13;;;16.18;100.00
3206;BME280;1615;53.602;11.418;2023-03-23T13:39:49;99862.31;;;16.21;100.00
3206;BME280;1615;53.602;11.418;2023-03-23T13:52:52;99798.13;;;15.33;100.00
3206;BME280;1615;53.602;11.418;2023-03-23T14:03:47;99862.81;;;15.83;100.00
3206;BME280;1615;53.602;11.418;2023-03-23T14:08:37;99861.31;;;15.86;100.00
3206;BME280;1615;53.602;11.418;2023-03-23T14:11:16;99867.75;;;15.90;100.00
3206;BME280;1615;53.602;11.418;2023-03-23T14:14:25;99873.44;;;16.09;100.00
3206;BME280;1615;53.602;11.418;2023-03-23T14:16:39;99764.63;;;15.74;100.00
3206;BME280;1615;53.602;11.418;2023-03-23T14:19:22;99861.53;;;16.48;100.00
3206;BME280;1615;53.602;11.418;2023-03-23T14:21:54;99869.03;;;16.47;100.00
3206;BME280;1615;53.602;11.418;2023-03-23T14:24:27;99862.97;;;16.30;100.00
3206;BME280;1615;53.602;11.418;2023-03-23T14:27:22;99866.47;;;16.27;100.00
3206;BME280;1615;53.602;11.418;2023-03-23T14:29:57;99876.78;;;16.30;100.00
3206;BME280;1615;53.602;11.418;2023-03-23T14:32:23;99874.91;;;16.46;100.00
3206;BME280;1615;53.602;11.418;2023-03-23T14:34:51;99777.38;;;16.06;100.00
3206;BME280;1615;53.602;11.418;2023-03-23T14:37:17;99872.44;;;16.72;100.00
3206;BME280;1615;53.602;11.418;2023-03-23T14:39:47;99875.59;;;16.86;100.00
3206;BME280;1615;53.602;11.418;2023-03-23T14:42:16;99873.19;;;17.00;100.00
3206;BME280;1615;53.602;11.418;2023-03-23T14:44:45;99869.94;;;17.13;100.00
3206;BME280;1615;53.602;11.418;2023-03-23T14:47:45;99870.66;;;17.26;100.00
3206;BME280;1615;53.602;11.418;2023-03-23T14:52:57;99796.13;;;16.71;100.00
3206;BME280;1615;53.602;11.418;2023-03-23T14:55:24;99827.28;;;16.99;100.00
3206;BME280;1615;53.602;11.418;2023-03-23T14:57:52;99869.75;;;17.22;100.00
3206;BME280;1615;53.602;11.418;2023-03-23T15:00:23;99854.66;;;17.19;100.00
3206;BME280;1615;53.602;11.418;2023-03-23T15:02:55;99817.34;;;16.82;100.00
3206;BME280;1615;53.602;11.418;2023-03-23T15:05:31;99859.25;;;17.12;100.00